sensor_id;sensor_type;location;lat;lon;timestamp;pressure;altitude;pressure_sealevel;temperature;humidity
44675;BME280;30388;52.038;-1.478;2023-05-09T00:00:44;66403.69;;;15.74;100.00
44675;BME280;30388;52.038;-1.478;2023-05-09T00:03:11;66406.16;;;16.03;100.00
44675;BME280;30388;52.038;-1.478;2023-05-09T00:05:39;66283.15;;;14.49;100.00
44675;BME280;30388;52.038;-1.478;2023-05-09T00:08:07;66364.74;;;15.52;100.00
44675;BME280;30388;52.038;-1.478;2023-05-09T00:10:34;66410.63;;;15.60;100.00
44675;BME280;30388;52.038;-1.478;2023-05-09T00:13:01;66368.27;;;15.29;100.00
44675;BME280;30388;52.038;-1.478;2023-05-09T00:15:30;66378.74;;;15.69;100.00
44675;BME280;30388;52.038;-1.478;2023-05-09T00:17:58;66434.24;;;16.12;100.00
44675;BME280;30388;52.038;-1.478;2023-05-09T00:20:25;66412.16;;;15.85;100.00
44675;BME280;30388;52.038;-1.478;2023-05-09T00:22:53;66400.53;;;15.97;100.00
44675;BME280;30388;52.038;-1.478;2023-05-09T00:25:20;66432.01;;;16.10;100.00
44675;BME280;30388;52.038;-1.478;2023-05-09T00:27:47;66401.10;;;15.70;100.00
44675;BME280;30388;52.038;-1.478;2023-05-09T00:30:14;66435.40;;;16.14;100.00
44675;BME280;30388;52.038;-1.478;2023-05-09T00:32:42;66411.33;;;15.61;100.00
44675;BME280;30388;52.038;-1.478;2023-05-09T00:35:09;66400.29;;;15.70;100.00
44675;BME280;30388;52.038;-1.478;2023-05-09T00:37:36;66382.04;;;15.73;100.00
44675;BME280;30388;52.038;-1.478;2023-05-09T00:40:06;66402.78;;;15.73;100.00
44675;BME280;30388;52.038;-1.478;2023-05-09T00:42:33;66356.31;;;15.14;100.00
44675;BME280;30388;52.038;-1.478;2023-05-09T00:45:00;66311.29;;;14.58;100.00
44675;BME280;30388;52.038;-1.478;2023-05-09T00:47:28;66315.55;;;14.90;100.00
44675;BME280;30388;52.038;-1.478;2023-05-09T00:49:56;66302.73;;;14.74;100.00
44675;BME280;30388;52.038;-1.478;2023-05-09T00:52:25;66331.71;;;15.10;100.00
44675;BME280;30388;52.038;-1.478;2023-05-09T00:54:53;66338.10;;;15.18;100.00
44675;BME280;30388;52.038;-1.478;2023-05-09T00:57:22;66286.45;;;14.52;100.00
44675;BME280;30388;52.038;-1.478;2023-05-09T00:59:49;66296.55;;;14.65;100.00
44675;BME280;30388;52.038;-1.478;2023-05-09T01:02:17;66315.70;;;14.90;100.00
44675;BME280;30388;52.038;-1.478;2023-05-09T01:04:45;66310.52;;;14.83;100.00
44675;BME280;30388;52.038;-1.478;2023-05-09T01:07:20;66298.41;;;14.68;100.00
44675;BME280;30388;52.038;-1.478;2023-05-09T01:09:54;66318.17;;;14.93;100.00
44675;BME280;30388;52.038;-1.478;2023-05-09T01:12:28;66315.66;;;14.90;100.00
44675;BME280;30388;52.038;-1.478;2023-05-09T01:15:05;66273.84;;;14.37;100.00
44675;BME280;30388;52.038;-1.478;2023-05-09T01:17:41;66251.02;;;14.09;100.00
44675;BME280;30388;52.038;-1.478;2023-05-09T01:20:16;66289.62;;;14.58;100.00
44675;BME280;30388;52.038;-1.478;2023-05-09T01:22:51;66303.89;;;14.75;100.00
44675;BME280;30388;52.038;-1.478;2023-05-09T01:25:57;66295.26;;;14.64;100.00
44675;BME280;30388;52.038;-1.478;2023-05-09T01:28:38;66297.51;;;14.68;100.00
44675;BME280;30388;52.038;-1.478;2023-05-09T01:31:15;66302.14;;;14.72;100.00
44675;BME280;30388;52.038;-1.478;2023-05-09T01:33:49;66312.02;;;14.85;100.00
44675;BME280;30388;52.038;-1.478;2023-05-09T01:36:19;66321.69;;;14.98;100.00
44675;BME280;30388;52.038;-1.478;2023-05-09T01:38:49;66342.80;;;14.97;100.00
44675;BME280;30388;52.038;-1.478;2023-05-09T01:41:18;66360.54;;;15.21;100.00
44675;BME280;30388;52.038;-1.478;2023-05-09T01:43:48;66360.88;;;15.20;100.00
44675;BME280;30388;52.038;-1.478;2023-05-09T01:46:18;66358.11;;;15.17;100.00
44675;BME280;30388;52.038;-1.478;2023-05-09T01:48:49;66370.28;;;15.32;100.00
44675;BME280;30388;52.038;-1.478;2023-05-09T01:51:16;66371.98;;;15.34;100.00
44675;BME280;30388;52.038;-1.478;2023-05-09T01:53:47;66385.26;;;15.29;100.00
44675;BME280;30388;52.038;-1.478;2023-05-09T01:56:14;66393.10;;;15.39;100.00
44675;BME280;30388;52.038;-1.478;2023-05-09T01:58:45;66415.94;;;15.45;100.00
44675;BME280;30388;52.038;-1.478;2023-05-09T02:01:14;66424.77;;;16.01;100.00
44675;BME280;30388;52.038;-1.478;2023-05-09T02:03:44;66444.35;;;16.04;100.00
44675;BME280;30388;52.038;-1.478;2023-05-09T02:06:14;66404.07;;;15.52;100.00
44675;BME280;30388;52.038;-1.478;2023-05-09T02:08:42;66426.41;;;16.02;100.00
44675;BME280;30388;52.038;-1.478;2023-05-09T02:11:10;66405.08;;;15.75;100.00
44675;BME280;30388;52.038;-1.478;2023-05-09T02:13:37;66413.04;;;15.63;100.00
44675;BME280;30388;52.038;-1.478;2023-05-09T02:16:05;66404.36;;;15.53;100.00
44675;BME280;30388;52.038;-1.478;2023-05-09T02:18:33;66381.31;;;15.46;100.00
44675;BME280;30388;52.038;-1.478;2023-05-09T02:21:01;66401.96;;;15.72;100.00
44675;BME280;30388;52.038;-1.478;2023-05-09T02:23:29;66400.88;;;15.70;100.00
44675;BME280;30388;52.038;-1.478;2023-05-09T02:25:57;66399.32;;;15.68;100.00
44675;BME280;30388;52.038;-1.478;2023-05-09T02:28:26;66440.78;;;16.47;100.00
44675;BME280;30388;52.038;-1.478;2023-05-09T02:30:56;66399.61;;;15.46;100.00
44675;BME280;30388;52.038;-1.478;2023-05-09T02:33:24;66271.40;;;14.34;100.00
44675;BME280;30388;52.038;-1.478;2023-05-09T02:35:54;66325.62;;;15.02;100.00
44675;BME280;30388;52.038;-1.478;2023-05-09T02:38:22;66338.95;;;14.92;100.00
44675;BME280;30388;52.038;-1.478;2023-05-09T02:40:50;66343.06;;;14.97;100.00
44675;BME280;30388;52.038;-1.478;2023-05-09T02:43:18;66317.27;;;14.92;100.00
44675;BME280;30388;52.038;-1.478;2023-05-09T02:45:45;66341.71;;;14.96;100.00
44675;BME280;30388;52.038;-1.478;2023-05-09T02:48:12;66371.28;;;15.60;100.00
44675;BME280;30388;52.038;-1.478;2023-05-09T02:50:40;66375.17;;;15.65;100.00
44675;BME280;30388;52.038;-1.478;2023-05-09T02:53:08;66353.92;;;15.38;100.00
44675;BME280;30388;52.038;-1.478;2023-05-09T02:55:35;66352.71;;;15.36;100.00
44675;BME280;30388;52.038;-1.478;2023-05-09T02:58:03;66336.23;;;15.16;100.00
44675;BME280;30388;52.038;-1.478;2023-05-09T03:00:30;66315.22;;;14.90;100.00
44675;BME280;30388;52.038;-1.478;2023-05-09T03:02:57;66286.05;;;14.52;100.00
44675;BME280;30388;52.038;-1.478;2023-05-09T03:05:24;66291.00;;;14.59;100.00
44675;BME280;30388;52.038;-1.478;2023-05-09T03:07:52;66327.88;;;15.06;100.00
44675;BME280;30388;52.038;-1.478;2023-05-09T03:10:19;66285.93;;;14.52;100.00
44675;BME280;30388;52.038;-1.478;2023-05-09T03:12:46;66268.91;;;14.32;100.00
44675;BME280;30388;52.038;-1.478;2023-05-09T03:15:14;66255.38;;;14.14;100.00
44675;BME280;30388;52.038;-1.478;2023-05-09T03:17:41;66254.74;;;13.87;100.00
44675;BME280;30388;52.038;-1.478;2023-05-09T03:20:09;66248.11;;;14.05;100.00
44675;BME280;30388;52.038;-1.478;2023-05-09T03:22:38;66237.81;;;14.14;100.00
44675;BME280;30388;52.038;-1.478;2023-05-09T03:25:05;66238.05;;;14.41;100.00
44675;BME280;30388;52.038;-1.478;2023-05-09T03:27:33;66259.92;;;14.20;100.00
44675;BME280;30388;52.038;-1.478;2023-05-09T03:30:02;66218.52;;;13.68;100.00
44675;BME280;30388;52.038;-1.478;2023-05-09T03:32:30;66197.54;;;13.91;100.00
44675;BME280;30388;52.038;-1.478;2023-05-09T03:34:57;66202.37;;;13.70;100.00
44675;BME280;30388;52.038;-1.478;2023-05-09T03:37:25;66220.77;;;14.19;100.00
44675;BME280;30388;52.038;-1.478;2023-05-09T03:39:52;66213.77;;;14.11;100.00
44675;BME280;30388;52.038;-1.478;2023-05-09T03:42:20;66211.89;;;14.08;100.00
44675;BME280;30388;52.038;-1.478;2023-05-09T03:44:48;66202.30;;;13.47;100.00
44675;BME280;30388;52.038;-1.478;2023-05-09T03:47:15;66164.72;;;13.71;100.00
44675;BME280;30388;52.038;-1.478;2023-05-09T03:49:42;66147.43;;;13.27;100.00
44675;BME280;30388;52.038;-1.478;2023-05-09T03:52:09;66151.95;;;13.33;100.00
44675;BME280;30388;52.038;-1.478;2023-05-09T03:54:37;66172.51;;;13.58;100.00
44675;BME280;30388;52.038;-1.478;2023-05-09T03:57:04;66166.24;;;13.50;100.00
44675;BME280;30388;52.038;-1.478;2023-05-09T03:59:31;66146.14;;;13.26;100.00
44675;BME280;30388;52.038;-1.478;2023-05-09T04:01:59;66141.26;;;13.20;100.00
44675;BME280;30388;52.038;-1.478;2023-05-09T04:04:27;66140.20;;;13.18;100.00
44675;BME280;30388;52.038;-1.478;2023-05-09T04:06:54;66144.59;;;13.23;100.00
44675;BME280;30388;52.038;-1.478;2023-05-09T04:09:21;66153.80;;;13.57;100.00
44675;BME280;30388;52.038;-1.478;2023-05-09T04:11:48;66113.56;;;12.84;100.00
44675;BME280;30388;52.038;-1.478;2023-05-09T04:14:16;66100.39;;;12.90;100.00
44675;BME280;30388;52.038;-1.478;2023-05-09T04:16:43;66093.53;;;13.04;100.00
44675;BME280;30388;52.038;-1.478;2023-05-09T04:19:11;66108.44;;;13.23;100.00
44675;BME280;30388;52.038;-1.478;2023-05-09T04:21:38;66087.78;;;12.97;100.00
44675;BME280;30388;52.038;-1.478;2023-05-09T04:24:06;66101.10;;;13.13;100.00
44675;BME280;30388;52.038;-1.478;2023-05-09T04:26:34;66088.50;;;12.75;100.00
44675;BME280;30388;52.038;-1.478;2023-05-09T04:29:02;66072.98;;;12.78;100.00
44675;BME280;30388;52.038;-1.478;2023-05-09T04:31:29;66050.18;;;12.49;100.00
44675;BME280;30388;52.038;-1.478;2023-05-09T04:33:56;66035.82;;;12.31;100.00
44675;BME280;30388;52.038;-1.478;2023-05-09T04:36:24;66048.21;;;12.24;100.00
44675;BME280;30388;52.038;-1.478;2023-05-09T04:38:51;66066.56;;;12.48;100.00
44675;BME280;30388;52.038;-1.478;2023-05-09T04:41:18;66073.92;;;12.79;100.00
44675;BME280;30388;52.038;-1.478;2023-05-09T04:43:46;66071.25;;;12.75;100.00
44675;BME280;30388;52.038;-1.478;2023-05-09T04:46:13;66094.72;;;12.83;100.00
44675;BME280;30388;52.038;-1.478;2023-05-09T04:48:41;66108.82;;;13.23;100.00
44675;BME280;30388;52.038;-1.478;2023-05-09T04:51:08;66129.80;;;13.49;100.00
44675;BME280;30388;52.038;-1.478;2023-05-09T04:53:35;66111.09;;;13.27;100.00
44675;BME280;30388;52.038;-1.478;2023-05-09T04:56:03;66125.48;;;13.22;100.00
44675;BME280;30388;52.038;-1.478;2023-05-09T04:58:30;66086.98;;;12.51;100.00
44675;BME280;30388;52.038;-1.478;2023-05-09T05:00:58;66139.30;;;13.39;100.00
44675;BME280;30388;52.038;-1.478;2023-05-09T05:03:25;66143.69;;;13.22;100.00
44675;BME280;30388;52.038;-1.478;2023-05-09T05:05:52;66176.85;;;13.86;100.00
44675;BME280;30388;52.038;-1.478;2023-05-09T05:08:20;66228.31;;;14.29;100.00
44675;BME280;30388;52.038;-1.478;2023-05-09T05:10:47;66256.90;;;14.65;100.00
44675;BME280;30388;52.038;-1.478;2023-05-09T05:13:14;66215.57;;;14.13;100.00
44675;BME280;30388;52.038;-1.478;2023-05-09T05:15:42;66210.03;;;14.05;100.00
44675;BME280;30388;52.038;-1.478;2023-05-09T05:18:10;66220.66;;;14.20;100.00
44675;BME280;30388;52.038;-1.478;2023-05-09T05:20:39;66205.14;;;13.73;100.00
44675;BME280;30388;52.038;-1.478;2023-05-09T05:23:07;66236.89;;;14.40;100.00
44675;BME280;30388;52.038;-1.478;2023-05-09T05:25:34;66258.08;;;14.39;100.00
44675;BME280;30388;52.038;-1.478;2023-05-09T05:28:01;66217.48;;;14.37;100.00
44675;BME280;30388;52.038;-1.478;2023-05-09T05:30:29;66297.57;;;14.67;100.00
44675;BME280;30388;52.038;-1.478;2023-05-09T05:32:57;66203.26;;;13.97;100.00
44675;BME280;30388;52.038;-1.478;2023-05-09T05:35:24;66218.11;;;14.16;100.00
44675;BME280;30388;52.038;-1.478;2023-05-09T05:37:51;66213.53;;;13.84;100.00
44675;BME280;30388;52.038;-1.478;2023-05-09T05:40:19;66297.77;;;15.16;100.00
44675;BME280;30388;52.038;-1.478;2023-05-09T05:42:46;66297.52;;;15.16;100.00
44675;BME280;30388;52.038;-1.478;2023-05-09T05:45:13;66267.49;;;15.00;100.00
44675;BME280;30388;52.038;-1.478;2023-05-09T05:47:40;66206.92;;;14.23;100.00
44675;BME280;30388;52.038;-1.478;2023-05-09T05:50:09;66235.96;;;14.39;100.00
44675;BME280;30388;52.038;-1.478;2023-05-09T05:52:36;66208.03;;;13.77;100.00
44675;BME280;30388;52.038;-1.478;2023-05-09T05:55:04;66192.28;;;13.84;100.00
44675;BME280;30388;52.038;-1.478;2023-05-09T05:57:32;66167.48;;;13.52;100.00
44675;BME280;30388;52.038;-1.478;2023-05-09T05:59:59;66171.48;;;13.57;100.00
44675;BME280;30388;52.038;-1.478;2023-05-09T06:02:26;66195.64;;;13.88;100.00
44675;BME280;30388;52.038;-1.478;2023-05-09T06:04:53;66227.98;;;14.29;100.00
44675;BME280;30388;52.038;-1.478;2023-05-09T06:07:21;66185.96;;;14.20;100.00
44675;BME280;30388;52.038;-1.478;2023-05-09T06:09:49;66238.11;;;14.42;100.00
44675;BME280;30388;52.038;-1.478;2023-05-09T06:12:16;66249.90;;;14.29;100.00
44675;BME280;30388;52.038;-1.478;2023-05-09T06:14:44;66255.06;;;14.62;100.00
44675;BME280;30388;52.038;-1.478;2023-05-09T06:17:12;66282.29;;;14.97;100.00
44675;BME280;30388;52.038;-1.478;2023-05-09T06:19:39;66266.13;;;14.28;100.00
44675;BME280;30388;52.038;-1.478;2023-05-09T06:22:08;66241.29;;;14.44;100.00
44675;BME280;30388;52.038;-1.478;2023-05-09T06:24:35;66264.41;;;14.75;100.00
44675;BME280;30388;52.038;-1.478;2023-05-09T06:27:02;66264.11;;;14.74;100.00
44675;BME280;30388;52.038;-1.478;2023-05-09T06:29:31;66297.59;;;14.68;100.00
44675;BME280;30388;52.038;-1.478;2023-05-09T06:31:58;66314.60;;;14.88;100.00
44675;BME280;30388;52.038;-1.478;2023-05-09T06:34:25;66230.77;;;14.05;100.00
44675;BME280;30388;52.038;-1.478;2023-05-09T06:36:54;66299.02;;;15.18;100.00
44675;BME280;30388;52.038;-1.478;2023-05-09T06:39:21;66313.79;;;15.10;100.00
44675;BME280;30388;52.038;-1.478;2023-05-09T06:41:48;66219.67;;;13.91;100.00
44675;BME280;30388;52.038;-1.478;2023-05-09T06:44:15;66233.33;;;14.35;100.00
44675;BME280;30388;52.038;-1.478;2023-05-09T06:46:42;66160.83;;;13.44;100.00
44675;BME280;30388;52.038;-1.478;2023-05-09T06:49:10;66217.99;;;13.88;100.00
44675;BME280;30388;52.038;-1.478;2023-05-09T06:51:37;66193.01;;;14.06;100.00
44675;BME280;30388;52.038;-1.478;2023-05-09T06:54:05;66242.31;;;14.20;100.00
44675;BME280;30388;52.038;-1.478;2023-05-09T06:56:32;66246.26;;;14.25;100.00
44675;BME280;30388;52.038;-1.478;2023-05-09T06:58:59;66271.76;;;14.57;100.00
44675;BME280;30388;52.038;-1.478;2023-05-09T07:01:26;66230.54;;;14.05;100.00
44675;BME280;30388;52.038;-1.478;2023-05-09T07:03:54;66294.62;;;14.63;100.00
44675;BME280;30388;52.038;-1.478;2023-05-09T07:06:21;66347.13;;;15.78;100.00
44675;BME280;30388;52.038;-1.478;2023-05-09T07:08:48;66379.59;;;15.70;100.00
44675;BME280;30388;52.038;-1.478;2023-05-09T07:11:16;66402.54;;;16.00;100.00
44675;BME280;30388;52.038;-1.478;2023-05-09T07:13:43;66336.54;;;14.90;100.00
44675;BME280;30388;52.038;-1.478;2023-05-09T07:16:10;66391.89;;;15.86;100.00
44675;BME280;30388;52.038;-1.478;2023-05-09T07:18:38;66277.55;;;14.42;100.00
44675;BME280;30388;52.038;-1.478;2023-05-09T07:21:05;66395.78;;;15.91;100.00
44675;BME280;30388;52.038;-1.478;2023-05-09T07:23:32;66292.92;;;15.10;100.00
44675;BME280;30388;52.038;-1.478;2023-05-09T07:25:59;66250.86;;;14.57;100.00
44675;BME280;30388;52.038;-1.478;2023-05-09T07:28:27;66367.53;;;15.77;100.00
44675;BME280;30388;52.038;-1.478;2023-05-09T07:30:55;66301.63;;;15.21;100.00
44675;BME280;30388;52.038;-1.478;2023-05-09T07:33:22;66237.45;;;14.63;100.00
44675;BME280;30388;52.038;-1.478;2023-05-09T07:35:49;66286.38;;;14.53;100.00
44675;BME280;30388;52.038;-1.478;2023-05-09T07:38:16;66334.76;;;15.63;100.00
44675;BME280;30388;52.038;-1.478;2023-05-09T07:40:44;66363.40;;;15.50;100.00
44675;BME280;30388;52.038;-1.478;2023-05-09T07:43:11;66333.88;;;15.12;100.00
44675;BME280;30388;52.038;-1.478;2023-05-09T07:45:39;66342.66;;;15.24;100.00
44675;BME280;30388;52.038;-1.478;2023-05-09T07:48:06;66399.21;;;15.95;100.00
44675;BME280;30388;52.038;-1.478;2023-05-09T07:50:34;66333.59;;;15.12;100.00
44675;BME280;30388;52.038;-1.478;2023-05-09T07:53:02;66373.12;;;15.63;100.00
44675;BME280;30388;52.038;-1.478;2023-05-09T07:55:29;66377.36;;;15.41;100.00
44675;BME280;30388;52.038;-1.478;2023-05-09T07:57:56;66370.28;;;15.32;100.00
44675;BME280;30388;52.038;-1.478;2023-05-09T08:00:23;66296.60;;;14.66;100.00
44675;BME280;30388;52.038;-1.478;2023-05-09T08:02:51;66232.05;;;14.34;100.00
44675;BME280;30388;52.038;-1.478;2023-05-09T08:05:19;66324.80;;;15.24;100.00
44675;BME280;30388;52.038;-1.478;2023-05-09T08:07:45;66346.64;;;15.29;100.00
44675;BME280;30388;52.038;-1.478;2023-05-09T08:10:14;66328.95;;;15.07;100.00
44675;BME280;30388;52.038;-1.478;2023-05-09T08:12:41;66197.37;;;13.42;100.00
44675;BME280;30388;52.038;-1.478;2023-05-09T08:15:08;66267.05;;;14.78;100.00
44675;BME280;30388;52.038;-1.478;2023-05-09T08:17:37;66342.38;;;15.24;100.00
44675;BME280;30388;52.038;-1.478;2023-05-09T08:20:05;66339.73;;;15.20;100.00
44675;BME280;30388;52.038;-1.478;2023-05-09T08:22:32;66328.46;;;15.06;100.00
44675;BME280;30388;52.038;-1.478;2023-05-09T08:25:00;66385.93;;;15.78;100.00
44675;BME280;30388;52.038;-1.478;2023-05-09T08:27:27;66409.74;;;15.60;100.00
44675;BME280;30388;52.038;-1.478;2023-05-09T08:29:54;66399.61;;;15.69;100.00
44675;BME280;30388;52.038;-1.478;2023-05-09T08:32:22;66375.97;;;15.65;100.00
44675;BME280;30388;52.038;-1.478;2023-05-09T08:34:50;66444.42;;;16.25;100.00
44675;BME280;30388;52.038;-1.478;2023-05-09T08:37:17;66489.35;;;16.37;100.00
44675;BME280;30388;52.038;-1.478;2023-05-09T08:39:44;66514.42;;;16.91;100.00
44675;BME280;30388;52.038;-1.478;2023-05-09T08:42:12;66446.53;;;16.05;100.00
44675;BME280;30388;52.038;-1.478;2023-05-09T08:44:39;66499.81;;;16.73;100.00
44675;BME280;30388;52.038;-1.478;2023-05-09T08:47:06;66461.48;;;16.24;100.00
44675;BME280;30388;52.038;-1.478;2023-05-09T08:49:35;66390.44;;;15.58;100.00
44675;BME280;30388;52.038;-1.478;2023-05-09T08:52:03;66336.20;;;14.89;100.00
44675;BME280;30388;52.038;-1.478;2023-05-09T08:54:36;66344.76;;;15.27;100.00
44675;BME280;30388;52.038;-1.478;2023-05-09T08:57:03;66421.49;;;15.97;100.00
44675;BME280;30388;52.038;-1.478;2023-05-09T08:59:33;66385.97;;;15.51;100.00
44675;BME280;30388;52.038;-1.478;2023-05-09T09:02:04;66350.86;;;15.08;100.00
44675;BME280;30388;52.038;-1.478;2023-05-09T09:04:32;66431.64;;;16.10;100.00
44675;BME280;30388;52.038;-1.478;2023-05-09T09:07:00;66395.77;;;15.91;100.00
44675;BME280;30388;52.038;-1.478;2023-05-09T09:09:32;66392.83;;;15.88;100.00
44675;BME280;30388;52.038;-1.478;2023-05-09T09:12:00;66338.47;;;15.19;100.00
44675;BME280;30388;52.038;-1.478;2023-05-09T09:14:27;66455.68;;;16.39;100.00
44675;BME280;30388;52.038;-1.478;2023-05-09T09:16:57;66461.22;;;16.02;100.00
44675;BME280;30388;52.038;-1.478;2023-05-09T09:19:29;66433.66;;;16.12;100.00
44675;BME280;30388;52.038;-1.478;2023-05-09T09:22:03;66437.12;;;15.94;100.00
44675;BME280;30388;52.038;-1.478;2023-05-09T09:24:30;66430.54;;;15.86;100.00
44675;BME280;30388;52.038;-1.478;2023-05-09T09:27:04;66497.60;;;16.70;100.00
44675;BME280;30388;52.038;-1.478;2023-05-09T09:29:33;66549.69;;;17.13;100.00
44675;BME280;30388;52.038;-1.478;2023-05-09T09:32:01;66562.05;;;17.51;100.00
44675;BME280;30388;52.038;-1.478;2023-05-09T09:34:31;66559.60;;;16.98;100.00
44675;BME280;30388;52.038;-1.478;2023-05-09T09:36:58;66566.25;;;17.07;100.00
44675;BME280;30388;52.038;-1.478;2023-05-09T09:39:25;66644.74;;;18.06;100.00
44675;BME280;30388;52.038;-1.478;2023-05-09T09:41:53;66667.91;;;18.12;100.00
44675;BME280;30388;52.038;-1.478;2023-05-09T09:44:22;66667.56;;;17.86;100.00
44675;BME280;30388;52.038;-1.478;2023-05-09T09:46:51;66702.80;;;18.56;100.00
44675;BME280;30388;52.038;-1.478;2023-05-09T09:49:20;66507.01;;;16.33;100.00
44675;BME280;30388;52.038;-1.478;2023-05-09T09:51:51;66521.37;;;16.51;100.00
44675;BME280;30388;52.038;-1.478;2023-05-09T09:54:19;66542.25;;;17.03;100.00
44675;BME280;30388;52.038;-1.478;2023-05-09T09:56:48;66651.86;;;18.14;100.00
44675;BME280;30388;52.038;-1.478;2023-05-09T09:59:18;66627.60;;;17.84;100.00
44675;BME280;30388;52.038;-1.478;2023-05-09T10:02:02;66708.89;;;18.64;100.00
44675;BME280;30388;52.038;-1.478;2023-05-09T10:04:32;66638.37;;;17.97;100.00
44675;BME280;30388;52.038;-1.478;2023-05-09T10:07:01;66553.00;;;16.91;100.00
44675;BME280;30388;52.038;-1.478;2023-05-09T10:09:30;66601.21;;;17.29;100.00
44675;BME280;30388;52.038;-1.478;2023-05-09T10:12:01;66516.00;;;16.44;100.00
44675;BME280;30388;52.038;-1.478;2023-05-09T10:14:31;66444.55;;;16.04;100.00
44675;BME280;30388;52.038;-1.478;2023-05-09T10:17:00;66647.14;;;18.09;100.00
44675;BME280;30388;52.038;-1.478;2023-05-09T10:19:28;66578.31;;;17.23;100.00
44675;BME280;30388;52.038;-1.478;2023-05-09T10:21:57;66643.26;;;17.81;100.00
44675;BME280;30388;52.038;-1.478;2023-05-09T10:24:29;66692.10;;;18.16;100.00
44675;BME280;30388;52.038;-1.478;2023-05-09T10:27:05;66724.63;;;18.57;100.00
44675;BME280;30388;52.038;-1.478;2023-05-09T10:29:37;66683.26;;;18.32;100.00
44675;BME280;30388;52.038;-1.478;2023-05-09T10:32:11;66606.71;;;17.36;100.00
44675;BME280;30388;52.038;-1.478;2023-05-09T10:34:45;66610.13;;;17.62;100.00
44675;BME280;30388;52.038;-1.478;2023-05-09T10:37:14;66698.89;;;18.25;100.00
44675;BME280;30388;52.038;-1.478;2023-05-09T10:39:42;66677.21;;;17.97;100.00
44675;BME280;30388;52.038;-1.478;2023-05-09T10:42:12;66781.43;;;19.29;100.00
44675;BME280;30388;52.038;-1.478;2023-05-09T10:44:40;66722.11;;;18.80;100.00
44675;BME280;30388;52.038;-1.478;2023-05-09T10:47:14;66773.69;;;18.74;100.00
44675;BME280;30388;52.038;-1.478;2023-05-09T10:49:44;66634.86;;;17.70;100.00
44675;BME280;30388;52.038;-1.478;2023-05-09T10:52:13;66688.17;;;18.38;100.00
44675;BME280;30388;52.038;-1.478;2023-05-09T10:54:41;66710.85;;;18.66;100.00
44675;BME280;30388;52.038;-1.478;2023-05-09T10:57:09;66608.67;;;17.39;100.00
44675;BME280;30388;52.038;-1.478;2023-05-09T10:59:39;66606.59;;;17.58;100.00
44675;BME280;30388;52.038;-1.478;2023-05-09T11:02:12;66678.55;;;18.26;100.00
44675;BME280;30388;52.038;-1.478;2023-05-09T11:04:39;66616.95;;;17.71;100.00
44675;BME280;30388;52.038;-1.478;2023-05-09T11:07:23;66623.07;;;17.78;100.00
44675;BME280;30388;52.038;-1.478;2023-05-09T11:09:51;66676.55;;;18.46;100.00
44675;BME280;30388;52.038;-1.478;2023-05-09T11:12:20;66721.02;;;18.79;100.00
44675;BME280;30388;52.038;-1.478;2023-05-09T11:14:50;66745.67;;;19.33;100.00
44675;BME280;30388;52.038;-1.478;2023-05-09T11:17:27;66776.22;;;19.21;100.00
44675;BME280;30388;52.038;-1.478;2023-05-09T11:19:59;66743.07;;;18.81;100.00
44675;BME280;30388;52.038;-1.478;2023-05-09T11:22:27;66846.28;;;19.65;100.00
44675;BME280;30388;52.038;-1.478;2023-05-09T11:25:01;66825.20;;;19.61;100.00
44675;BME280;30388;52.038;-1.478;2023-05-09T11:27:37;66840.45;;;20.03;100.00
44675;BME280;30388;52.038;-1.478;2023-05-09T11:30:07;66793.63;;;19.43;100.00
44675;BME280;30388;52.038;-1.478;2023-05-09T11:32:43;66872.45;;;19.98;100.00
44675;BME280;30388;52.038;-1.478;2023-05-09T11:35:12;66760.49;;;19.03;100.00
44675;BME280;30388;52.038;-1.478;2023-05-09T11:37:45;66742.13;;;18.79;100.00
44675;BME280;30388;52.038;-1.478;2023-05-09T11:40:14;66745.05;;;18.83;100.00
44675;BME280;30388;52.038;-1.478;2023-05-09T11:42:44;66762.68;;;18.60;100.00
44675;BME280;30388;52.038;-1.478;2023-05-09T11:45:14;66800.30;;;19.07;100.00
44675;BME280;30388;52.038;-1.478;2023-05-09T11:47:42;66868.61;;;19.93;100.00
44675;BME280;30388;52.038;-1.478;2023-05-09T11:50:12;66970.13;;;21.20;100.00
44675;BME280;30388;52.038;-1.478;2023-05-09T11:52:40;66949.44;;;20.94;100.00
44675;BME280;30388;52.038;-1.478;2023-05-09T11:55:10;66949.68;;;20.68;100.00
44675;BME280;30388;52.038;-1.478;2023-05-09T11:57:39;67032.67;;;21.49;100.00
44675;BME280;30388;52.038;-1.478;2023-05-09T12:00:08;67063.72;;;21.87;100.00
44675;BME280;30388;52.038;-1.478;2023-05-09T12:02:37;67065.81;;;21.69;100.00
44675;BME280;30388;52.038;-1.478;2023-05-09T12:05:06;66987.41;;;21.15;100.00
44675;BME280;30388;52.038;-1.478;2023-05-09T12:07:36;66958.97;;;20.56;100.00
44675;BME280;30388;52.038;-1.478;2023-05-09T12:10:05;66999.68;;;21.08;100.00
44675;BME280;30388;52.038;-1.478;2023-05-09T12:12:34;66912.03;;;20.47;100.00
44675;BME280;30388;52.038;-1.478;2023-05-09T12:15:03;66967.03;;;20.89;100.00
44675;BME280;30388;52.038;-1.478;2023-05-09T12:17:31;66917.73;;;20.54;100.00
44675;BME280;30388;52.038;-1.478;2023-05-09T12:19:58;66895.36;;;20.26;100.00
44675;BME280;30388;52.038;-1.478;2023-05-09T12:22:26;66939.97;;;20.33;100.00
44675;BME280;30388;52.038;-1.478;2023-05-09T12:24:54;66979.68;;;21.05;100.00
44675;BME280;30388;52.038;-1.478;2023-05-09T12:27:21;67048.69;;;21.69;100.00
44675;BME280;30388;52.038;-1.478;2023-05-09T12:29:48;66983.84;;;20.88;100.00
44675;BME280;30388;52.038;-1.478;2023-05-09T12:32:17;66999.52;;;21.30;100.00
44675;BME280;30388;52.038;-1.478;2023-05-09T12:34:44;67022.00;;;21.36;100.00
44675;BME280;30388;52.038;-1.478;2023-05-09T12:37:15;67023.99;;;21.16;100.00
44675;BME280;30388;52.038;-1.478;2023-05-09T12:39:43;67045.04;;;21.65;100.00
44675;BME280;30388;52.038;-1.478;2023-05-09T12:42:12;67002.10;;;20.89;100.00
44675;BME280;30388;52.038;-1.478;2023-05-09T12:44:40;66982.72;;;20.86;100.00
44675;BME280;30388;52.038;-1.478;2023-05-09T12:47:14;67014.34;;;21.04;100.00